Terminal Aerodrome Forecast
Issued by NWS

Home | Current Version | Previous Version | Graphics & Text | Print | Product List | Glossary On
Versions: 1 2 3 4 5 6 7 8 9 10 11 12 13 14 15 16 17 18 19 20 21 22 23 24 25 26 27 28 29 30 31 32 33 34 35 36 37 38 39 40 41 42
000
FTUS43 KLOT 111600 AAB
TAFDPA
TAF AMD
KDPA 111600Z 1116/1212 17008KT P6SM SCT250
     FM111900 19011KT P6SM FEW050 BKN180
     FM120400 17006KT P6SM SCT050 OVC080 PROB30 1208/1211 -TSRA
      BKN040CB=

USA.gov is the U.S. government's official web portal to all federal, state and local government web resources and services.